Time;durP1;ratioP1;P1;durP2;ratioP2;P2;SDS_P1;SDS_P2;PMS_P1;PMS_P2;Temp;Humidity;BMP_temperature;BMP_pressure;BME280_temperature;BME280_humidity;BME280_pressure;Samples;Min_cycle;Max_cycle;Signal;HPM_P1;HPM_P2
2021/05/26 00:00:07;;;;;;;2.20;0.70;;;;;;;9.10;84.87;100529.94;3531551;40;20065;-50
2021/05/26 00:02:35;;;;;;;1.40;0.98;;;;;;;9.12;84.81;100527.44;3531288;40;20074;-52
2021/05/26 00:05:04;;;;;;;0.93;0.60;;;;;;;9.10;84.81;100526.50;3531751;40;20378;-55
2021/05/26 00:07:31;;;;;;;2.25;1.00;;;;;;;9.05;85.96;100531.47;3531690;40;20114;-53
2021/05/26 00:09:58;;;;;;;3.05;0.90;;;;;;;9.05;85.08;100528.94;3531511;40;20520;-53
2021/05/26 00:12:25;;;;;;;0.90;0.60;;;;;;;9.00;85.21;100522.81;3531225;40;20059;-56
2021/05/26 00:14:52;;;;;;;1.42;0.98;;;;;;;8.95;85.74;100514.16;3531348;40;20117;-58
2021/05/26 00:17:19;;;;;;;1.88;0.90;;;;;;;8.82;86.75;100520.59;3531096;40;20055;-50
2021/05/26 00:19:46;;;;;;;1.52;0.80;;;;;;;8.83;86.45;100517.25;3527209;40;20091;-53
2021/05/26 00:22:13;;;;;;;1.25;1.00;;;;;;;8.73;86.77;100519.44;3531094;40;20055;-56
2021/05/26 00:24:40;;;;;;;17.23;2.55;;;;;;;8.71;87.47;100518.56;3531214;40;20082;-53
2021/05/26 00:27:07;;;;;;;1.25;1.10;;;;;;;8.72;86.79;100521.13;3531297;40;20110;-54
2021/05/26 00:29:34;;;;;;;1.02;0.90;;;;;;;8.81;86.85;100513.75;3531298;40;20074;-52
2021/05/26 00:32:02;;;;;;;1.08;0.80;;;;;;;8.76;86.85;100517.00;3534103;40;20067;-53
2021/05/26 00:34:29;;;;;;;1.20;0.77;;;;;;;8.73;87.15;100510.09;3534559;40;20087;-55
2021/05/26 00:36:56;;;;;;;2.22;0.90;;;;;;;8.81;87.13;100508.66;3534172;40;20051;-53
2021/05/26 00:39:23;;;;;;;2.03;0.95;;;;;;;8.89;86.76;100501.22;3534054;40;20641;-53
2021/05/26 00:41:50;;;;;;;1.00;0.70;;;;;;;8.81;86.96;100501.00;3534287;40;20301;-57
2021/05/26 00:44:17;;;;;;;1.02;0.70;;;;;;;8.89;86.64;100507.19;3534332;40;20315;-51
2021/05/26 00:46:46;;;;;;;1.08;0.82;;;;;;;8.98;86.50;100500.63;3534069;40;20090;-50
2021/05/26 00:49:13;;;;;;;2.78;1.17;;;;;;;8.87;86.67;100506.31;3534302;40;20070;-51
2021/05/26 00:51:40;;;;;;;1.30;0.80;;;;;;;9.06;85.70;100501.69;3534205;40;20098;-56
2021/05/26 00:54:08;;;;;;;0.80;0.80;;;;;;;8.97;86.47;100504.88;3534323;40;20094;-52
2021/05/26 00:56:36;;;;;;;3.67;0.70;;;;;;;9.06;85.95;100494.03;3534207;40;20098;-56
2021/05/26 00:59:06;;;;;;;1.63;0.80;;;;;;;9.02;85.98;100505.00;3534543;40;20103;-56
2021/05/26 01:01:33;;;;;;;1.10;0.65;;;;;;;9.13;85.35;100499.38;3534328;40;20069;-55
2021/05/26 01:04:00;;;;;;;1.52;0.70;;;;;;;9.07;86.20;100498.34;3535072;40;20348;-56
2021/05/26 01:06:27;;;;;;;1.05;0.65;;;;;;;9.11;85.04;100484.84;3534356;40;20143;-53
2021/05/26 01:08:54;;;;;;;1.15;0.60;;;;;;;9.11;86.10;100497.63;3534135;40;20065;-55
2021/05/26 01:11:21;;;;;;;2.20;1.00;;;;;;;9.15;85.04;100502.84;3534007;40;20086;-51
2021/05/26 01:13:49;;;;;;;0.95;0.80;;;;;;;9.13;84.85;100488.28;3534307;40;20058;-57
2021/05/26 01:16:16;;;;;;;0.73;0.60;;;;;;;9.08;85.51;100494.97;3533998;40;20067;-52
2021/05/26 01:18:43;;;;;;;1.52;0.93;;;;;;;9.00;86.44;100494.72;3534300;40;20409;-52
2021/05/26 01:21:12;;;;;;;2.85;0.88;;;;;;;9.04;85.16;100490.59;3534106;40;20070;-57
2021/05/26 01:23:43;;;;;;;0.65;0.63;;;;;;;9.04;86.13;100490.59;3534104;40;20063;-53
2021/05/26 01:26:10;;;;;;;3.13;0.95;;;;;;;9.09;85.71;100483.91;3533973;40;20055;-54
2021/05/26 01:28:37;;;;;;;2.92;0.82;;;;;;;9.02;85.72;100488.00;3534074;40;20057;-53
2021/05/26 01:31:05;;;;;;;0.82;0.80;;;;;;;9.04;85.54;100486.34;3534071;40;20535;-52
2021/05/26 01:33:33;;;;;;;1.60;0.70;;;;;;;8.97;86.54;100489.56;3533980;40;20066;-51
2021/05/26 01:36:00;;;;;;;1.52;0.75;;;;;;;8.99;85.96;100493.00;3534029;40;20476;-53
2021/05/26 01:38:27;;;;;;;1.27;0.77;;;;;;;8.83;86.33;100484.06;3534196;40;20046;-56
2021/05/26 01:41:00;;;;;;;1.10;0.82;;;;;;;8.90;86.01;100482.53;3534082;40;20062;-52
2021/05/26 01:43:28;;;;;;;2.00;0.90;;;;;;;8.93;86.59;100487.72;3531789;40;20055;-56
2021/05/26 01:45:55;;;;;;;1.65;0.93;;;;;;;8.83;86.61;100484.06;3532206;40;20091;-55
2021/05/26 01:48:22;;;;;;;0.77;0.75;;;;;;;8.83;87.34;100472.97;3532211;40;20082;-55
2021/05/26 01:50:50;;;;;;;1.92;0.70;;;;;;;8.80;86.82;100481.41;3532291;40;20499;-55
2021/05/26 01:53:17;;;;;;;1.30;0.60;;;;;;;8.95;86.32;100486.06;3532204;40;20067;-54
2021/05/26 01:55:44;;;;;;;1.00;0.75;;;;;;;8.87;86.21;100485.88;3532117;40;20110;-53
2021/05/26 01:58:15;;;;;;;1.13;0.73;;;;;;;8.89;86.50;100483.34;3531994;40;20604;-56
2021/05/26 02:00:45;;;;;;;1.30;0.73;;;;;;;8.83;87.42;100488.28;3532382;40;20743;-51
2021/05/26 02:03:13;;;;;;;1.50;0.90;;;;;;;8.73;87.70;100486.25;3532184;40;20046;-52
2021/05/26 02:05:40;;;;;;;1.35;0.75;;;;;;;8.89;87.55;100491.00;3532282;40;20742;-57
2021/05/26 02:08:07;;;;;;;3.53;0.98;;;;;;;8.82;87.67;100489.09;3531908;40;20694;-54
2021/05/26 02:13:20;;;;;;;1.67;0.80;;;;;;;8.88;87.72;100490.16;3532113;40;20058;-57
2021/05/26 02:15:47;;;;;;;1.77;0.95;;;;;;;8.91;88.21;100480.00;3528228;40;20058;-54
2021/05/26 02:18:14;;;;;;;1.02;0.80;;;;;;;9.10;87.45;100476.28;3532181;40;20772;-50
2021/05/26 02:20:41;;;;;;;2.58;0.77;;;;;;;9.10;86.88;100478.84;3532321;40;20073;-52
2021/05/26 02:23:10;;;;;;;1.63;0.90;;;;;;;9.03;87.26;100478.66;3532177;40;20536;-53
2021/05/26 02:25:37;;;;;;;0.80;0.70;;;;;;;9.10;87.51;100475.41;3531708;40;20070;-52
2021/05/26 02:28:04;;;;;;;2.60;0.90;;;;;;;9.03;87.89;100479.50;3532104;40;20109;-55
2021/05/26 02:30:31;;;;;;;1.05;0.80;;;;;;;9.16;87.39;100473.06;3532141;40;20078;-54
2021/05/26 02:32:58;;;;;;;2.38;0.98;;;;;;;9.10;87.53;100465.22;3531942;40;20089;-56
2021/05/26 02:35:29;;;;;;;1.55;0.90;;;;;;;9.10;87.48;100467.75;3531722;40;20059;-58
2021/05/26 02:37:56;;;;;;;1.80;0.82;;;;;;;9.14;87.31;100473.00;3532065;40;20106;-53
2021/05/26 02:40:23;;;;;;;1.00;0.90;;;;;;;9.09;87.59;100466.91;3531696;40;20110;-53
2021/05/26 02:42:50;;;;;;;2.53;1.02;;;;;;;9.13;88.04;100478.06;3531747;40;20086;-53
2021/05/26 02:45:17;;;;;;;2.08;0.93;;;;;;;9.18;88.32;100464.59;3532204;40;20082;-57
2021/05/26 02:47:44;;;;;;;2.00;1.02;;;;;;;9.19;87.94;100468.00;3531887;40;20051;-53
2021/05/26 02:50:17;;;;;;;3.53;1.15;;;;;;;9.18;88.40;100466.28;3531837;40;20087;-56
2021/05/26 02:52:49;;;;;;;3.55;1.25;;;;;;;9.25;87.87;100465.66;3532172;40;20125;-54
2021/05/26 02:55:17;;;;;;;1.52;1.13;;;;;;;9.20;87.85;100467.22;3532093;40;20098;-53
2021/05/26 02:57:44;;;;;;;2.03;0.82;;;;;;;9.17;88.38;100470.53;3531829;40;20075;-53
2021/05/26 03:00:13;;;;;;;2.88;1.13;;;;;;;9.10;88.76;100467.75;3532248;40;20110;-55
2021/05/26 03:02:40;;;;;;;2.78;1.27;;;;;;;9.13;89.02;100467.84;3532008;40;20094;-55
2021/05/26 03:05:08;;;;;;;2.83;1.20;;;;;;;9.11;89.31;100465.28;3531888;40;20090;-55
2021/05/26 03:07:35;;;;;;;2.33;1.00;;;;;;;9.10;89.69;100470.31;3531820;40;20065;-54
2021/05/26 03:10:04;;;;;;;1.67;0.90;;;;;;;9.08;89.69;100467.72;3532336;40;20063;-51
2021/05/26 03:12:31;;;;;;;2.55;1.38;;;;;;;9.10;89.20;100466.06;3532009;40;20433;-51
2021/05/26 03:14:59;;;;;;;2.53;1.20;;;;;;;9.26;89.14;100466.50;3532036;40;20055;-55
2021/05/26 03:17:28;;;;;;;1.67;0.90;;;;;;;9.27;89.04;100470.78;3531818;40;20102;-56
2021/05/26 03:19:56;;;;;;;1.50;0.90;;;;;;;9.21;89.31;100468.94;3531964;40;20727;-54
2021/05/26 03:22:24;;;;;;;5.45;2.35;;;;;;;9.29;88.81;100472.56;3531759;40;20074;-55
2021/05/26 03:24:52;;;;;;;2.47;1.33;;;;;;;9.21;89.10;100471.50;3532023;40;20094;-53
2021/05/26 03:27:26;;;;;;;2.92;1.40;;;;;;;9.33;88.96;100470.94;3531785;40;20071;-56
2021/05/26 03:29:53;;;;;;;1.73;1.00;;;;;;;9.38;88.16;100472.81;3528367;40;20089;-53
2021/05/26 03:32:22;;;;;;;2.67;1.63;;;;;;;9.49;88.02;100473.09;3531619;40;20087;-53
2021/05/26 03:34:49;;;;;;;1.90;1.05;;;;;;;9.41;88.08;100464.34;3527990;40;20078;-53
2021/05/26 03:37:16;;;;;;;1.42;1.15;;;;;;;9.48;88.35;100462.84;3531894;40;20091;-53
2021/05/26 03:39:43;;;;;;;1.15;1.02;;;;;;;9.52;88.31;100455.31;3531816;40;20117;-55
2021/05/26 03:42:10;;;;;;;1.73;1.13;;;;;;;9.51;87.82;100465.47;3531882;40;20078;-53
2021/05/26 03:44:50;;;;;;;1.25;1.13;;;;;;;9.48;88.72;100466.28;3531814;40;20087;-57
2021/05/26 03:47:19;;;;;;;2.20;0.98;;;;;;;9.62;87.79;100464.94;3531682;40;20043;-56
2021/05/26 03:49:46;;;;;;;2.78;1.00;;;;;;;9.63;87.47;100469.22;3531884;40;20074;-56
2021/05/26 03:52:13;;;;;;;1.95;1.15;;;;;;;9.58;87.37;100457.16;3531589;40;20090;-54
2021/05/26 03:54:40;;;;;;;2.70;1.05;;;;;;;9.65;87.86;100467.53;3531754;40;20102;-54
2021/05/26 03:57:08;;;;;;;2.92;1.30;;;;;;;9.64;87.49;100463.25;3531586;40;20082;-53
2021/05/26 03:59:35;;;;;;;2.10;1.15;;;;;;;9.56;87.43;100472.41;3531446;40;20082;-54
2021/05/26 04:02:02;;;;;;;1.73;1.27;;;;;;;9.78;87.45;100471.28;3531281;40;20090;-56
2021/05/26 04:04:38;;;;;;;3.42;1.60;;;;;;;9.70;87.30;100473.63;3521585;40;20047;-56
2021/05/26 04:07:11;;;;;;;1.77;0.90;;;;;;;9.68;86.60;100467.63;3515549;40;20539;-58
2021/05/26 04:09:38;;;;;;;1.63;1.00;;;;;;;9.72;87.02;100471.16;3531310;40;20054;-54
2021/05/26 04:12:24;;;;;;;1.65;0.95;;;;;;;9.68;87.10;100470.19;3531547;40;20164;-55
2021/05/26 04:14:53;;;;;;;1.48;1.10;;;;;;;9.70;87.37;100465.09;3527936;40;20413;-55
2021/05/26 04:17:21;;;;;;;0.90;0.85;;;;;;;9.82;86.87;100465.44;3531403;40;20058;-55
2021/05/26 04:19:49;;;;;;;1.40;1.15;;;;;;;9.99;85.78;100465.00;3527553;40;20081;-57
2021/05/26 04:22:17;;;;;;;2.90;1.42;;;;;;;9.95;85.89;100461.50;3531038;40;20059;-58
2021/05/26 04:24:45;;;;;;;2.45;1.02;;;;;;;9.90;85.73;100461.38;3531447;40;20066;-54
2021/05/26 04:27:12;;;;;;;1.88;0.90;;;;;;;9.98;85.11;100463.25;3531226;40;20479;-58
2021/05/26 04:29:39;;;;;;;1.20;1.10;;;;;;;9.99;85.56;100462.44;3529922;40;20059;-57
2021/05/26 04:32:06;;;;;;;2.53;0.98;;;;;;;9.92;85.07;100461.41;3527589;40;20881;-58
2021/05/26 04:34:33;;;;;;;2.55;1.00;;;;;;;9.92;85.97;100469.94;3527900;40;20073;-54
2021/05/26 04:37:00;;;;;;;3.42;1.23;;;;;;;10.10;83.96;100464.41;3528798;40;20073;-53
2021/05/26 04:39:27;;;;;;;2.38;1.73;;;;;;;10.18;83.93;100467.16;3533264;40;20051;-58
2021/05/26 04:41:54;;;;;;;2.17;1.10;;;;;;;10.30;84.21;100461.47;3532113;40;20066;-52
2021/05/26 04:44:21;;;;;;;2.03;1.00;;;;;;;10.48;83.28;100461.03;3531192;40;20051;-56
2021/05/26 04:46:48;;;;;;;3.22;0.93;;;;;;;10.43;82.91;100463.50;3531008;40;20417;-54
2021/05/26 04:49:16;;;;;;;3.75;1.00;;;;;;;10.45;82.65;100457.59;3529032;40;20086;-53
2021/05/26 04:51:43;;;;;;;2.95;1.20;;;;;;;10.58;82.36;100457.84;3531035;40;20114;-57
2021/05/26 04:54:10;;;;;;;2.22;1.05;;;;;;;10.52;82.21;100456.00;3528789;40;20424;-56
2021/05/26 04:56:37;;;;;;;2.47;1.13;;;;;;;10.61;82.34;100458.78;3529344;40;20344;-53
2021/05/26 04:59:04;;;;;;;2.20;1.10;;;;;;;10.50;81.87;100450.00;3529525;40;20058;-57
2021/05/26 05:01:31;;;;;;;3.15;1.55;;;;;;;10.66;81.58;100464.84;3531271;40;20074;-52
2021/05/26 05:03:58;;;;;;;1.52;1.00;;;;;;;10.66;80.74;100439.25;3531270;40;20069;-54
2021/05/26 05:06:25;;;;;;;5.47;1.42;;;;;;;10.76;80.76;100454.81;3529723;40;20055;-58
2021/05/26 05:08:52;;;;;;;3.80;1.20;;;;;;;10.70;81.03;100453.00;3526138;40;20341;-52
2021/05/26 05:11:20;;;;;;;4.28;1.52;;;;;;;10.77;80.63;100454.88;3530307;40;20043;-54
2021/05/26 05:13:47;;;;;;;2.47;1.23;;;;;;;10.71;80.19;100455.56;3530537;40;20051;-55
2021/05/26 05:16:14;;;;;;;3.40;1.20;;;;;;;10.86;79.84;100447.38;3530776;40;20336;-56
2021/05/26 05:18:41;;;;;;;2.35;1.10;;;;;;;10.88;80.06;100453.38;3531225;40;20348;-54
2021/05/26 05:21:09;;;;;;;2.30;1.00;;;;;;;10.76;80.15;100448.00;3532059;40;20100;-58
2021/05/26 05:23:36;;;;;;;4.72;1.30;;;;;;;10.63;80.53;100446.88;3531525;40;20081;-53
2021/05/26 05:26:03;;;;;;;3.00;1.40;;;;;;;10.57;80.22;100451.00;3532646;40;20074;-56
2021/05/26 05:28:30;;;;;;;3.75;1.60;;;;;;;10.71;80.26;100447.03;3532579;40;20074;-53
2021/05/26 05:30:57;;;;;;;3.60;1.35;;;;;;;10.91;80.30;100443.19;3530079;40;20063;-54
2021/05/26 05:33:25;;;;;;;3.30;1.25;;;;;;;11.06;79.20;100449.47;3532642;40;20086;-56
2021/05/26 05:35:53;;;;;;;5.47;1.42;;;;;;;11.22;78.27;100438.66;3532166;40;20114;-57
2021/05/26 05:38:20;;;;;;;3.22;1.17;;;;;;;11.11;78.27;100450.41;3532563;40;20057;-56
2021/05/26 05:40:48;;;;;;;1.85;1.40;;;;;;;10.86;78.93;100451.59;3528464;40;20058;-54
2021/05/26 05:43:15;;;;;;;3.13;2.38;;;;;;;10.83;79.32;100442.19;3532394;40;20065;-56
2021/05/26 05:45:43;;;;;;;3.58;1.52;;;;;;;10.99;78.84;100445.91;3532601;40;20160;-54
2021/05/26 05:48:11;;;;;;;4.47;1.35;;;;;;;11.09;77.88;100437.59;3532449;40;20099;-56
2021/05/26 05:50:38;;;;;;;2.92;1.00;;;;;;;11.44;77.03;100438.22;3532396;40;20082;-58
2021/05/26 05:53:05;;;;;;;1.25;1.05;;;;;;;11.36;77.30;100439.78;3532320;40;20066;-53
2021/05/26 05:55:32;;;;;;;3.33;1.40;;;;;;;11.54;76.90;100435.81;3522915;40;20070;-53
2021/05/26 05:58:03;;;;;;;2.70;1.33;;;;;;;11.46;76.43;100441.69;3525204;40;20079;-55
2021/05/26 06:00:38;;;;;;;2.55;1.55;;;;;;;11.47;76.52;100440.00;3526199;40;20062;-55
2021/05/26 06:03:05;;;;;;;2.17;1.27;;;;;;;11.51;75.61;100435.75;3529536;40;20082;-59
2021/05/26 06:05:32;;;;;;;2.70;1.63;;;;;;;11.61;75.24;100441.09;3523751;40;20071;-58
2021/05/26 06:08:07;;;;;;;3.80;1.33;;;;;;;11.66;75.13;100448.88;3529174;40;20050;-59
2021/05/26 06:10:39;;;;;;;4.55;1.52;;;;;;;11.72;74.50;100437.00;3520383;40;20803;-58
2021/05/26 06:13:09;;;;;;;2.90;1.45;;;;;;;11.77;74.40;100442.22;3528337;40;20050;-59
2021/05/26 06:15:37;;;;;;;2.53;2.00;;;;;;;11.91;72.73;100453.59;3529672;40;20061;-58
2021/05/26 06:18:17;;;;;;;3.15;1.55;;;;;;;11.93;73.03;100436.53;3525909;40;20055;-56
2021/05/26 06:20:45;;;;;;;2.88;1.35;;;;;;;12.19;72.93;100438.63;3530940;40;20162;-60
2021/05/26 06:23:12;;;;;;;2.33;1.40;;;;;;;12.21;72.01;100450.66;3530261;40;20058;-59
2021/05/26 06:25:39;;;;;;;3.97;1.30;;;;;;;12.36;71.64;100442.31;3529737;40;20436;-57
2021/05/26 06:28:07;;;;;;;3.15;1.20;;;;;;;12.59;71.10;100441.78;3531441;40;20074;-59
2021/05/26 06:30:34;;;;;;;1.83;0.93;;;;;;;12.91;70.98;100435.34;3533386;40;20067;-61
2021/05/26 06:33:01;;;;;;;3.20;1.27;;;;;;;13.47;68.87;100449.69;3540819;40;20527;-59
2021/05/26 06:35:28;;;;;;;2.17;1.42;;;;;;;13.06;67.09;100439.78;3528357;40;20053;-60
2021/05/26 06:37:55;;;;;;;1.88;1.17;;;;;;;13.56;66.68;100441.19;3528415;40;20090;-61
2021/05/26 06:40:22;;;;;;;2.13;1.30;;;;;;;13.41;64.51;100437.63;3529910;40;20723;-60
2021/05/26 06:42:52;;;;;;;4.35;1.27;;;;;;;13.34;65.98;100443.56;3525594;40;20051;-57
2021/05/26 06:45:25;;;;;;;2.90;1.63;;;;;;;13.66;65.64;100443.00;3528714;40;20059;-59
2021/05/26 06:47:52;;;;;;;2.67;1.20;;;;;;;13.84;64.19;100440.59;3528815;40;20045;-61
2021/05/26 06:50:20;;;;;;;3.35;1.38;;;;;;;13.80;64.27;100446.56;3531237;40;20094;-53
2021/05/26 06:52:47;;;;;;;3.90;1.50;;;;;;;13.63;64.32;100435.25;3528288;40;20601;-54
2021/05/26 06:55:16;;;;;;;4.18;1.45;;;;;;;14.03;64.80;100441.59;3531478;40;20499;-56
2021/05/26 06:57:55;;;;;;;1.98;1.25;;;;;;;13.89;62.61;100438.91;3529785;40;20140;-55
2021/05/26 07:00:23;;;;;;;2.97;1.50;;;;;;;14.01;61.98;100444.19;3530340;40;20136;-52
2021/05/26 07:02:50;;;;;;;3.53;1.20;;;;;;;14.11;62.90;100439.09;3531224;40;20413;-53
2021/05/26 07:05:17;;;;;;;3.50;1.33;;;;;;;14.16;62.21;100437.41;3531442;40;20059;-55
2021/05/26 07:07:44;;;;;;;4.18;1.08;;;;;;;14.42;61.44;100429.81;3531282;40;20096;-58
2021/05/26 07:10:12;;;;;;;2.30;1.25;;;;;;;14.05;61.39;100429.63;3531304;40;20065;-54
2021/05/26 07:12:39;;;;;;;2.80;1.30;;;;;;;14.04;62.09;100425.28;3530610;40;20054;-57
2021/05/26 07:15:09;;;;;;;1.52;1.00;;;;;;;14.35;61.68;100431.53;3522413;40;20702;-58
2021/05/26 07:17:36;;;;;;;1.70;1.20;;;;;;;14.33;62.35;100440.97;3528930;40;20058;-61
2021/05/26 07:20:04;;;;;;;3.10;1.35;;;;;;;14.64;61.07;100429.13;3528811;40;20075;-53
2021/05/26 07:22:34;;;;;;;1.40;1.20;;;;;;;14.58;58.69;100435.97;3531356;40;20132;-58
2021/05/26 07:25:08;;;;;;;3.08;1.50;;;;;;;14.61;58.82;100428.28;3531245;40;20332;-57
2021/05/26 07:27:36;;;;;;;1.52;1.20;;;;;;;14.32;60.12;100433.22;3530862;40;20120;-55
2021/05/26 07:30:05;;;;;;;1.83;1.23;;;;;;;14.53;61.59;100433.38;3532129;40;20065;-57
2021/05/26 07:32:34;;;;;;;5.30;1.30;;;;;;;14.78;58.78;100432.63;3530631;40;20067;-55
2021/05/26 07:35:03;;;;;;;1.30;1.20;;;;;;;15.05;58.39;100430.16;3531789;40;20489;-54
2021/05/26 07:37:30;;;;;;;2.00;1.05;;;;;;;14.99;58.27;100423.25;3531538;40;20058;-58
2021/05/26 07:39:58;;;;;;;3.10;1.02;;;;;;;14.85;60.26;100435.25;3527980;40;20387;-57
2021/05/26 07:42:25;;;;;;;1.63;1.05;;;;;;;14.67;58.96;100424.00;3525139;40;20118;-58
2021/05/26 07:44:52;;;;;;;5.13;1.85;;;;;;;14.59;59.09;100425.66;3526974;40;20411;-56
2021/05/26 07:47:19;;;;;;;2.25;1.17;;;;;;;14.71;60.42;100433.47;3529142;40;20078;-57
2021/05/26 07:49:50;;;;;;;1.38;1.02;;;;;;;14.84;59.26;100425.81;3527729;40;20087;-55
2021/05/26 07:52:21;;;;;;;3.08;1.38;;;;;;;15.17;59.16;100425.91;3530414;40;20530;-56
2021/05/26 07:54:49;;;;;;;4.68;1.55;;;;;;;15.18;56.75;100427.63;3527362;40;20090;-59
2021/05/26 07:57:16;;;;;;;3.13;1.25;;;;;;;15.59;55.69;100426.84;3530905;40;20341;-57
2021/05/26 07:59:44;;;;;;;2.65;1.38;;;;;;;15.71;54.33;100418.25;3530960;40;20049;-56
2021/05/26 08:02:12;;;;;;;2.40;1.48;;;;;;;15.82;54.80;100420.84;3531088;40;20099;-56
2021/05/26 08:04:40;;;;;;;5.10;2.15;;;;;;;15.25;55.96;100420.75;3531108;40;20120;-55
2021/05/26 08:07:10;;;;;;;3.25;1.30;;;;;;;14.65;57.32;100409.38;3531414;40;20095;-53
2021/05/26 08:09:41;;;;;;;3.30;1.13;;;;;;;14.63;56.57;100419.69;3530741;40;20447;-55
2021/05/26 08:12:08;;;;;;;4.75;1.10;;;;;;;14.67;55.75;100405.97;3531037;40;20067;-54
2021/05/26 08:14:36;;;;;;;3.05;1.05;;;;;;;14.80;55.13;100413.75;3530868;40;20124;-54
2021/05/26 08:17:04;;;;;;;4.55;1.20;;;;;;;15.31;54.84;100410.47;3522463;40;20126;-56
2021/05/26 08:19:32;;;;;;;2.65;1.08;;;;;;;15.78;53.69;100413.09;3530617;40;20074;-60
2021/05/26 08:22:00;;;;;;;3.00;1.17;;;;;;;15.47;53.92;100411.31;3530642;40;20055;-58
2021/05/26 08:24:30;;;;;;;3.92;1.00;;;;;;;15.40;54.15;100407.03;3530614;40;20051;-58
2021/05/26 08:26:57;;;;;;;2.50;0.88;;;;;;;15.15;55.52;100416.41;3530772;40;20083;-58
2021/05/26 08:29:29;;;;;;;4.13;1.10;;;;;;;14.96;55.66;100392.31;3530939;40;20680;-58
2021/05/26 08:31:58;;;;;;;0.95;0.80;;;;;;;14.88;56.45;100396.56;3522306;40;20058;-58
2021/05/26 08:34:25;;;;;;;2.33;0.80;;;;;;;14.37;56.98;100393.75;3531325;40;20078;-61
2021/05/26 08:36:56;;;;;;;2.65;0.93;;;;;;;14.35;57.34;100397.19;3530351;40;20385;-59
2021/05/26 08:39:27;;;;;;;2.05;1.50;;;;;;;13.96;59.17;100399.50;3521812;40;20063;-55
2021/05/26 08:41:54;;;;;;;3.90;1.58;;;;;;;14.13;58.27;100391.88;3530850;40;20062;-57
2021/05/26 08:44:24;;;;;;;2.63;1.00;;;;;;;14.24;59.22;100392.81;3530402;40;20094;-56
2021/05/26 08:46:53;;;;;;;2.15;1.00;;;;;;;14.39;58.93;100384.31;3521664;40;20096;-54
2021/05/26 08:49:21;;;;;;;2.80;1.30;;;;;;;14.58;58.31;100387.00;3530590;40;20085;-55
2021/05/26 08:51:49;;;;;;;4.88;1.05;;;;;;;15.09;58.55;100386.31;3528384;40;20075;-57
2021/05/26 08:54:17;;;;;;;2.88;1.35;;;;;;;15.83;55.69;100378.69;3532426;40;20409;-61
2021/05/26 08:56:45;;;;;;;5.22;1.50;;;;;;;15.98;53.79;100378.66;3522653;40;20070;-57
2021/05/26 08:59:16;;;;;;;4.57;1.15;;;;;;;15.91;53.01;100385.56;3532222;40;20121;-58
2021/05/26 09:01:51;;;;;;;2.75;0.88;;;;;;;15.71;53.42;100374.38;3532601;40;20332;-59
2021/05/26 09:04:34;;;;;;;1.90;0.90;;;;;;;15.26;54.29;100376.06;3532651;40;20062;-59
2021/05/26 09:07:16;;;;;;;2.47;1.08;;;;;;;14.96;53.40;100376.84;3530286;40;20363;-58
2021/05/26 09:09:55;;;;;;;3.97;1.35;;;;;;;14.55;54.44;100377.53;3531807;40;20058;-59
2021/05/26 09:12:44;;;;;;;5.80;1.08;;;;;;;14.63;54.81;100380.16;3534513;40;20055;-63
2021/05/26 09:15:15;;;;;;;2.83;0.85;;;;;;;14.84;55.65;100369.94;3538745;40;20112;-58
2021/05/26 09:17:48;;;;;;;3.42;0.80;;;;;;;15.36;54.05;100366.59;3530788;40;20069;-60
2021/05/26 09:20:26;;;;;;;2.03;0.88;;;;;;;16.18;52.34;100361.41;3531255;40;20058;-57
2021/05/26 09:22:59;;;;;;;1.58;1.10;;;;;;;16.93;50.76;100353.38;3529231;40;20039;-55
2021/05/26 09:25:27;;;;;;;6.32;1.60;;;;;;;16.86;50.47;100356.84;3531748;40;20063;-56
2021/05/26 09:28:28;;;;;;;2.50;1.42;;;;;;;16.50;50.88;100357.84;3531743;40;20043;-57
2021/05/26 09:31:06;;;;;;;2.22;0.70;;;;;;;15.88;51.34;100358.88;3529295;40;20062;-56
2021/05/26 09:33:36;;;;;;;2.40;1.00;;;;;;;15.40;53.96;100358.88;3531568;40;20059;-59
2021/05/26 09:36:13;;;;;;;2.65;0.80;;;;;;;14.84;56.02;100354.47;3532405;40;20144;-55
2021/05/26 09:38:58;;;;;;;2.97;0.95;;;;;;;15.06;56.36;100362.25;3532035;40;20050;-62
2021/05/26 09:41:29;;;;;;;1.65;0.90;;;;;;;15.03;55.73;100355.38;3531242;40;20119;-62
2021/05/26 09:44:02;;;;;;;2.00;0.80;;;;;;;15.61;54.52;100358.00;3531564;40;20058;-63
2021/05/26 09:46:33;;;;;;;3.45;1.88;;;;;;;16.37;51.96;100358.78;3531421;40;20047;-58
2021/05/26 09:49:16;;;;;;;3.28;1.10;;;;;;;16.95;50.90;100351.63;3531916;40;20089;-56
2021/05/26 09:51:52;;;;;;;3.47;0.93;;;;;;;17.57;48.57;100367.59;3531434;40;20059;-58
2021/05/26 09:54:30;;;;;;;4.05;1.13;;;;;;;17.36;48.78;100367.75;3531784;40;20357;-58
2021/05/26 09:57:03;;;;;;;4.93;1.25;;;;;;;17.32;49.54;100374.66;3529516;40;20486;-55
2021/05/26 09:59:32;;;;;;;6.38;1.00;;;;;;;16.15;50.86;100387.25;3530500;40;20461;-53
2021/05/26 10:01:59;;;;;;;5.25;1.02;;;;;;;14.85;54.92;100374.25;3530298;40;20071;-55
2021/05/26 10:04:26;;;;;;;2.58;0.98;;;;;;;14.49;67.96;100375.81;3531403;40;20138;-50
2021/05/26 10:07:05;;;;;;;3.58;1.17;;;;;;;14.27;74.53;100379.09;3531998;40;20057;-54
2021/05/26 10:09:33;;;;;;;1.40;0.80;;;;;;;14.58;72.17;100379.28;3531901;40;20059;-56
2021/05/26 10:12:02;;;;;;;2.40;0.85;;;;;;;15.09;67.64;100375.16;3531869;40;20058;-55
2021/05/26 10:14:33;;;;;;;1.48;0.70;;;;;;;16.65;60.40;100378.47;3532120;40;20121;-55
2021/05/26 10:17:08;;;;;;;1.95;0.80;;;;;;;19.67;50.19;100373.69;3531646;40;20535;-56
2021/05/26 10:19:35;;;;;;;2.47;0.93;;;;;;;21.60;45.89;100372.38;3531116;40;20074;-54
2021/05/26 10:22:02;;;;;;;1.75;0.70;;;;;;;20.63;44.40;100367.63;3532174;40;20106;-55
2021/05/26 10:24:32;;;;;;;3.58;1.05;;;;;;;19.40;48.22;100361.97;3531823;40;20658;-55
2021/05/26 10:27:00;;;;;;;2.75;1.35;;;;;;;18.93;48.20;100360.09;3531697;40;20058;-56
2021/05/26 10:29:27;;;;;;;3.97;1.17;;;;;;;18.36;49.28;100350.44;3531330;40;20409;-59
2021/05/26 10:31:59;;;;;;;3.35;1.33;;;;;;;17.97;49.47;100349.13;3531721;40;20065;-54
2021/05/26 10:34:42;;;;;;;2.90;0.80;;;;;;;18.94;47.70;100346.25;3531483;40;20185;-53
2021/05/26 10:37:24;;;;;;;4.18;1.58;;;;;;;18.42;46.36;100347.75;3531387;40;20152;-53
2021/05/26 10:39:52;;;;;;;2.60;0.80;;;;;;;18.74;46.54;100334.41;3529050;40;20094;-59
2021/05/26 10:42:32;;;;;;;2.65;0.80;;;;;;;17.67;47.32;100334.72;3531779;40;20106;-59
2021/05/26 10:45:06;;;;;;;2.15;0.73;;;;;;;16.78;49.71;100343.97;3529226;40;20069;-60
2021/05/26 10:47:36;;;;;;;1.73;0.90;;;;;;;15.76;54.15;100333.91;3531661;40;20063;-58
2021/05/26 10:50:05;;;;;;;1.88;0.70;;;;;;;15.57;53.47;100337.34;3532343;40;20051;-58
2021/05/26 10:53:02;;;;;;;1.40;0.73;;;;;;;15.71;53.50;100349.41;3528616;40;20072;-57
2021/05/26 10:55:35;;;;;;;2.75;0.57;;;;;;;17.61;48.99;100351.16;3531100;40;20059;-56
2021/05/26 10:58:19;;;;;;;1.38;0.60;;;;;;;19.85;43.50;100346.53;3528955;40;20066;-59
2021/05/26 11:00:56;;;;;;;1.83;0.70;;;;;;;22.40;39.00;100338.97;3530855;40;20047;-58
2021/05/26 11:06:00;;;;;;;2.70;0.90;;;;;;;25.32;33.88;100347.22;3530073;40;20058;-59
2021/05/26 11:08:45;;;;;;;1.33;0.75;;;;;;;23.82;34.34;100344.97;3531446;40;20456;-59
2021/05/26 11:11:18;;;;;;;2.75;0.65;;;;;;;23.71;33.05;100332.28;3530844;40;20054;-58
2021/05/26 11:14:02;;;;;;;0.93;0.57;;;;;;;24.56;32.46;100346.69;3529975;40;20640;-56
2021/05/26 11:16:41;;;;;;;2.40;0.60;;;;;;;23.76;33.77;100334.75;3527224;40;20148;-60
2021/05/26 11:19:28;;;;;;;2.10;0.60;;;;;;;23.43;33.74;100326.22;3527727;40;20107;-59
2021/05/26 11:22:04;;;;;;;2.05;0.50;;;;;;;21.04;38.08;100330.28;3527506;40;20289;-60
2021/05/26 11:24:35;;;;;;;;;;;;;;;22.30;36.13;100330.56;3528375;40;20043;-58
2021/05/26 11:27:23;;;;;;;3.08;0.50;;;;;;;20.17;40.51;100322.56;3526598;40;19989;-60
2021/05/26 11:29:51;;;;;;;0.60;0.30;;;;;;;19.90;41.54;100325.69;3527180;40;20035;-60
2021/05/26 11:32:21;;;;;;;1.38;0.40;;;;;;;18.88;42.47;100313.47;3526913;40;20111;-55
2021/05/26 11:34:50;;;;;;;0.93;0.52;;;;;;;19.10;43.23;100319.19;3528271;40;20046;-59
2021/05/26 11:37:29;;;;;;;1.20;0.50;;;;;;;18.47;44.29;100317.44;3528476;40;20442;-60
2021/05/26 11:39:58;;;;;;;0.65;0.50;;;;;;;18.40;43.61;100325.34;3528388;40;20074;-56
2021/05/26 11:42:27;;;;;;;0.98;0.40;;;;;;;18.40;44.51;100310.63;3528716;40;20058;-58
2021/05/26 11:44:55;;;;;;;1.67;0.47;;;;;;;17.92;46.74;100315.47;3528338;40;20062;-58